Have a Safe July 4th! 

Flight Track Log - Related Links

Times and Time Zones

All times are in EDT time to prevent confusion due to time zone crossing. See the SKW6345 flight status page for this flight to view local times or setup timezone preferences in your user account.

Time Position Orientation Groundspeed Altitude Reporting Facility
EDT Latitude Longitude Course Direction KTS MPH feet Rate Location/Type
Fri 07:39:52 PM 33.9500 -118.4333 263° West 133 153 1,300  Level Southern California TRACON
Fri 07:40:22 PM 33.9464 -118.4669 263° West 164 189 2,000 1,435 Climbing Los Angeles Center
Fri 07:41:24 PM 33.9547 -118.5269 280° West 177 204 3,500 1,500 Climbing Los Angeles Center
Fri 07:42:26 PM 33.9656 -118.5969 281° West 191 220 5,100 1,452 Climbing Los Angeles Center
Fri 07:43:28 PM 34.0114 -118.6183 339° North 192 221 6,500 912 Climbing Los Angeles Center
Fri 07:44:31 PM 34.0750 -118.6278 353° North 216 249 7,000 720 Climbing Los Angeles Center
Fri 07:45:33 PM 34.1358 -118.6369 353° North 234 269 8,000 968 Climbing Los Angeles Center
Fri 07:46:35 PM 34.2025 -118.6414 357° North 238 274 9,000 968 Climbing Los Angeles Center
Fri 07:47:37 PM 34.2708 -118.6481 355° North 242 278 10,000 1,065 Climbing Los Angeles Center
Fri 07:48:39 PM 34.3550 -118.6547 356° North 248 285 11,200 919 Climbing Los Angeles Center
Fri 07:49:41 PM 34.4253 -118.6639 354° North 252 290 11,900 387 Climbing Los Angeles Center
Fri 07:50:43 PM 34.4942 -118.7039 334° Northwest 271 312 12,000 48 Climbing Los Angeles Center
Fri 07:51:46 PM 34.5667 -118.7431 336° Northwest 285 328 12,000 581 Level Los Angeles Center
Fri 07:52:47 PM 34.6364 -118.7783 337° Northwest 270 311 13,200 1,016 Climbing Los Angeles Center
Fri 07:53:50 PM 34.7156 -118.8167 338° Northwest 257 296 14,100 1,152 Climbing Los Angeles Center
Fri 07:54:52 PM 34.7867 -118.8297 351° North 261 300 15,600 968 Climbing Los Angeles Center
Fri 07:55:54 PM 34.8581 -118.8403 353° North 256 295 16,100 194 Climbing Los Angeles Center
Fri 07:56:56 PM 34.9450 -118.8533 353° North 281 323 16,000 339 Descending Los Angeles Center
Fri 07:57:58 PM 35.0253 -118.8672 352° North 288 331 16,800 919 Climbing Los Angeles Center
Fri 07:59:00 PM 35.0964 -118.8800 352° North 271 312 17,900 919 Climbing Los Angeles Center
Fri 08:00:02 PM 35.1661 -118.8925 352° North 257 296 18,700 774 Climbing Los Angeles Center
Fri 08:01:04 PM 35.2406 -118.9053 352° North 265 305 19,500 624 Climbing Los Angeles Center
Fri 08:02:07 PM 35.3103 -118.9172 352° North 262 302 20,000 240 Climbing Los Angeles Center
Fri 08:03:09 PM 35.4047 -118.9328 352° North 280 322 20,000  Level Los Angeles Center
Fri 08:04:11 PM 35.4856 -118.9464 352° North 288 331 20,000  Level Los Angeles Center
Fri 08:05:13 PM 35.5642 -118.9594 352° North 288 331 20,000  Level Los Angeles Center
Fri 08:06:15 PM 35.6436 -118.9733 352° North 288 331 20,000  Level Los Angeles Center
Fri 08:07:17 PM 35.7217 -118.9883 351° North 287 330 20,000 -97 Level Los Angeles Center
Fri 08:08:19 PM 35.8158 -119.0053 352° North 287 330 19,800 -1,161 Descending Los Angeles Center
Fri 08:09:21 PM 35.8942 -119.0169 353° North 286 329 17,600 -2,081 Descending Los Angeles Center
Fri 08:10:23 PM 35.9628 -119.0436 343° North 270 311 15,500 -1,728 Descending Los Angeles Center
Fri 08:11:26 PM 36.0289 -119.0769 338° Northwest 264 304 14,000 -720 Descending Los Angeles Center
Fri 08:12:28 PM 36.0903 -119.1086 337° Northwest 249 287 14,000  Level Los Angeles Center
Fri 08:13:30 PM 36.1697 -119.1436 340° North 249 287 14,000 -387 Level Los Angeles Center
Fri 08:14:32 PM 36.2369 -119.1744 340° North 253 291 13,200 -919 Descending Los Angeles Center
Fri 08:15:34 PM 36.3114 -119.2103 339° North 276 318 12,100 -1,597 Descending Los Angeles Center
Fri 08:16:36 PM 36.3853 -119.2472 338° Northwest 279 321 9,900 -2,274 Descending Los Angeles Center
Fri 08:17:38 PM 36.4597 -119.2822 339° North 283 326 7,400 -2,352 Descending Los Angeles Center
Fri 08:18:41 PM 36.5308 -119.3181 338° Northwest 283 326 5,000 -2,256 Descending Los Angeles Center
Fri 08:19:43 PM 36.5872 -119.3861 316° Northwest 255 293 2,700 -1,161 Descending Los Angeles Center
Fri 08:20:45 PM 36.6208 -119.4461 305° West 232 267 2,600 -81 Descending Los Angeles Center
Fri 08:22:11 PM 36.6686 -119.5281 306° West 205 236 2,500 -327 Descending Oakland Center
Fri 08:23:12 PM 36.6992 -119.5822 305° West 188 216 1,800 -341 Descending Oakland Center
Fri 08:24:14 PM 36.7200 -119.6181 306° West 140 161 1,800 -244 Level Oakland Center
Fri 08:25:15 PM 36.7408 -119.6547 305° West 128 147 1,300 -537 Descending Oakland Center
Fri 08:26:17 PM 36.7611 -119.6903 305° West 127 146 700 -581 Descending Oakland Center

Login

Don't have an account? Register now (free) for customized features, flight alerts, and more!